Time;durP1;ratioP1;P1;durP2;ratioP2;P2;SDS_P1;SDS_P2;PMS_P1;PMS_P2;Temp;Humidity;BMP_temperature;BMP_pressure;BME280_temperature;BME280_humidity;BME280_pressure;Samples;Min_cycle;Max_cycle;Signal;HPM_P1;HPM_P2
2022/11/10 00:00:47;;;;;;;9.30;3.10;;;;;;;10.52;100.00;99402.34;5110704;28;20055;-79
2022/11/10 00:03:13;;;;;;;8.55;4.45;;;;;;;10.38;100.00;99384.91;5110020;28;20055;-79
2022/11/10 00:05:40;;;;;;;8.50;3.63;;;;;;;10.35;100.00;99390.72;5110615;28;20386;-78
2022/11/10 00:08:10;;;;;;;7.25;3.42;;;;;;;10.49;100.00;99411.69;5110612;28;20505;-79
2022/11/10 00:10:55;;;;;;;13.15;5.88;;;;;;;10.31;100.00;99383.91;5109907;28;20129;-79
2022/11/10 00:13:23;;;;;;;13.52;3.80;;;;;;;10.48;100.00;99410.00;5112539;28;20193;-78
2022/11/10 00:18:33;;;;;;;5.18;3.05;;;;;;;10.41;100.00;99411.75;5114065;28;20129;-78
2022/11/10 00:21:04;;;;;;;9.27;3.25;;;;;;;10.35;100.00;99410.56;5114559;28;20044;-78
2022/11/10 00:23:32;;;;;;;10.98;3.75;;;;;;;10.39;100.00;99422.78;5113613;28;20051;-78
2022/11/10 00:25:59;;;;;;;11.55;3.80;;;;;;;10.33;100.00;99409.91;5114248;28;20055;-78
2022/11/10 00:28:26;;;;;;;6.45;3.45;;;;;;;10.40;100.00;99429.94;5114155;28;20058;-79
2022/11/10 00:30:52;;;;;;;5.90;2.97;;;;;;;10.28;100.00;99413.13;5106893;28;20043;-78
2022/11/10 00:33:19;;;;;;;10.02;3.35;;;;;;;10.41;100.00;99425.31;5113280;28;20047;-79
2022/11/10 00:35:45;;;;;;;8.63;3.25;;;;;;;10.44;100.00;99427.69;5114084;28;20402;-79
2022/11/10 00:38:12;;;;;;;16.40;3.70;;;;;;;10.36;100.00;99427.75;5114269;28;20048;-79
2022/11/10 00:40:40;;;;;;;7.95;3.55;;;;;;;10.21;100.00;99416.75;5114084;28;20052;-79
2022/11/10 00:43:06;;;;;;;6.80;3.80;;;;;;;10.26;100.00;99436.06;5113050;28;20044;-79
2022/11/10 00:45:33;;;;;;;8.05;3.90;;;;;;;10.14;100.00;99430.16;5113817;28;20055;-79
2022/11/10 00:48:00;;;;;;;7.75;3.60;;;;;;;10.20;100.00;99429.44;5110386;28;20050;-78
2022/11/10 00:50:26;;;;;;;11.77;4.55;;;;;;;10.19;100.00;99424.19;5113736;28;20048;-79
2022/11/10 00:52:52;;;;;;;14.90;5.10;;;;;;;10.13;100.00;99436.59;5112916;28;20043;-79
2022/11/10 00:55:19;;;;;;;7.80;4.03;;;;;;;10.09;100.00;99424.41;5113800;28;20044;-79
2022/11/10 00:57:47;;;;;;;11.82;4.80;;;;;;;10.28;100.00;99444.88;5112755;28;20448;-78
2022/11/10 01:00:14;;;;;;;9.60;4.32;;;;;;;10.16;100.00;99443.56;5113653;28;20047;-79
2022/11/10 01:02:40;;;;;;;9.40;4.50;;;;;;;10.15;100.00;99452.75;5113716;28;20134;-78
2022/11/10 01:05:07;;;;;;;11.05;4.28;;;;;;;10.15;100.00;99459.03;5110924;28;20046;-78
2022/11/10 01:07:34;;;;;;;15.43;5.40;;;;;;;10.14;100.00;99459.22;5113164;28;20056;-78
2022/11/10 01:10:00;;;;;;;17.02;4.78;;;;;;;10.08;100.00;99461.59;5113734;28;20051;-78
2022/11/10 01:12:28;;;;;;;10.63;4.10;;;;;;;10.07;100.00;99469.91;5112710;28;20414;-79
2022/11/10 01:14:56;;;;;;;12.18;5.93;;;;;;;10.07;100.00;99480.78;5113352;28;20052;-79
2022/11/10 01:17:23;;;;;;;11.32;4.13;;;;;;;9.99;100.00;99459.91;5113556;28;20047;-79
2022/11/10 01:19:49;;;;;;;10.15;4.22;;;;;;;10.01;100.00;99479.63;5113221;28;20048;-79
2022/11/10 01:22:16;;;;;;;12.07;4.57;;;;;;;10.05;100.00;99485.53;5108046;28;20054;-79
2022/11/10 01:24:42;;;;;;;11.35;4.03;;;;;;;10.18;100.00;99488.56;5112713;28;20047;-79
2022/11/10 01:27:09;;;;;;;7.10;3.83;;;;;;;10.15;100.00;99485.38;5112818;28;20126;-78
2022/11/10 01:29:35;;;;;;;11.90;5.20;;;;;;;10.10;100.00;99475.00;5113127;28;20059;-79
2022/11/10 01:32:04;;;;;;;9.60;4.15;;;;;;;10.17;100.00;99492.28;5112787;28;20051;-78
2022/11/10 01:34:30;;;;;;;14.30;4.50;;;;;;;10.07;100.00;99481.63;5113134;28;20115;-79
2022/11/10 01:36:57;;;;;;;8.45;4.22;;;;;;;10.15;100.00;99502.50;5112816;28;20070;-79
2022/11/10 01:39:24;;;;;;;13.57;5.22;;;;;;;10.08;100.00;99502.34;5108430;28;20059;-78
2022/11/10 01:41:50;;;;;;;12.25;4.28;;;;;;;10.03;100.00;99482.16;5112849;28;20105;-79
2022/11/10 01:44:19;;;;;;;15.18;4.70;;;;;;;9.96;100.00;99489.31;5112003;28;20201;-78
2022/11/10 01:46:48;;;;;;;10.43;4.10;;;;;;;9.94;100.00;99485.94;5113946;28;20138;-78
2022/11/10 01:49:22;;;;;;;8.68;4.32;;;;;;;10.04;100.00;99495.56;5113721;28;20062;-78
2022/11/10 01:51:51;;;;;;;11.50;4.28;;;;;;;10.02;100.00;99508.47;5112740;28;20545;-79
2022/11/10 01:54:22;;;;;;;10.63;3.97;;;;;;;9.89;100.00;99498.16;5111907;28;20047;-78
2022/11/10 01:56:53;;;;;;;6.00;3.47;;;;;;;9.92;100.00;99505.06;5102183;28;20039;-78
2022/11/10 01:59:24;;;;;;;4.80;3.72;;;;;;;9.81;100.00;99492.72;5112443;28;20414;-78
2022/11/10 02:01:54;;;;;;;10.35;3.97;;;;;;;9.85;100.00;99512.25;5112363;28;20047;-78
2022/11/10 02:04:22;;;;;;;9.63;4.13;;;;;;;9.73;100.00;99512.56;5112203;28;20055;-78
2022/11/10 02:06:50;;;;;;;9.02;4.00;;;;;;;9.75;100.00;99509.69;5112493;28;20058;-79
2022/11/10 02:09:17;;;;;;;11.02;4.55;;;;;;;9.77;100.00;99510.38;5112002;28;20051;-78
2022/11/10 02:11:45;;;;;;;8.68;4.38;;;;;;;9.80;100.00;99509.19;5112098;28;20375;-78
2022/11/10 02:14:12;;;;;;;7.82;4.03;;;;;;;9.80;100.00;99528.19;5106934;28;20048;-78
2022/11/10 02:16:39;;;;;;;10.32;4.40;;;;;;;9.71;100.00;99517.34;5112208;28;20167;-78
2022/11/10 02:19:18;;;;;;;11.13;4.00;;;;;;;9.81;100.00;99530.72;5111954;28;20048;-78
2022/11/10 02:21:46;;;;;;;9.30;4.38;;;;;;;9.71;100.00;99532.75;5112117;28;20059;-79
2022/11/10 02:24:13;;;;;;;7.70;3.72;;;;;;;9.64;100.00;99529.06;5111585;28;20050;-78
2022/11/10 02:26:45;;;;;;;16.05;4.13;;;;;;;9.56;100.00;99525.31;5111711;28;20048;-79
2022/11/10 02:29:12;;;;;;;7.00;4.00;;;;;;;9.73;100.00;99544.31;5111744;28;20051;-78
2022/11/10 02:31:38;;;;;;;8.25;4.72;;;;;;;9.57;100.00;99543.31;5103261;28;20328;-78
2022/11/10 02:34:05;;;;;;;13.65;4.40;;;;;;;9.50;100.00;99536.84;5111084;28;20043;-78
2022/11/10 02:36:31;;;;;;;7.28;4.10;;;;;;;9.62;100.00;99555.50;5110985;28;20043;-78
2022/11/10 02:38:59;;;;;;;7.43;3.67;;;;;;;9.60;100.00;99555.66;5111833;28;20055;-78
2022/11/10 02:41:26;;;;;;;12.63;3.88;;;;;;;9.47;100.00;99547.19;5111608;28;20091;-78
2022/11/10 02:43:54;;;;;;;7.97;4.68;;;;;;;9.50;100.00;99557.69;5110609;28;20059;-78
2022/11/10 02:46:21;;;;;;;8.73;3.80;;;;;;;9.39;100.00;99548.03;5111984;28;20046;-78
2022/11/10 02:48:47;;;;;;;9.13;3.97;;;;;;;9.33;100.00;99543.28;5109227;28;20055;-78
2022/11/10 02:51:14;;;;;;;7.03;3.85;;;;;;;9.38;100.00;99568.91;5111528;28;20047;-79
2022/11/10 02:53:40;;;;;;;8.88;3.40;;;;;;;9.31;100.00;99567.84;5110440;28;20061;-78
2022/11/10 02:56:09;;;;;;;9.57;3.58;;;;;;;9.26;100.00;99558.50;5111584;28;20347;-79
2022/11/10 02:58:35;;;;;;;8.18;3.67;;;;;;;9.23;100.00;99567.84;5109577;28;20054;-78
2022/11/10 03:01:05;;;;;;;10.65;3.50;;;;;;;9.16;100.00;99564.94;5111369;28;20044;-78
2022/11/10 03:03:32;;;;;;;8.05;3.85;;;;;;;9.13;100.00;99583.44;5110578;28;20059;-78
2022/11/10 03:05:58;;;;;;;9.52;3.80;;;;;;;9.16;100.00;99588.53;5108545;28;20059;-78
2022/11/10 03:08:25;;;;;;;8.50;3.50;;;;;;;9.05;100.00;99589.69;5110943;28;20052;-79
2022/11/10 03:10:53;;;;;;;7.85;3.42;;;;;;;8.99;100.00;99576.78;5090815;28;20052;-79
2022/11/10 03:13:21;;;;;;;9.98;3.75;;;;;;;9.03;100.00;99583.56;5090184;28;20052;-79
2022/11/10 03:15:47;;;;;;;13.32;3.50;;;;;;;9.15;100.00;99612.09;5091221;28;20046;-78
2022/11/10 03:18:14;;;;;;;4.88;3.47;;;;;;;9.07;100.00;99620.19;5090849;28;20048;-79
2022/11/10 03:20:41;;;;;;;12.00;3.30;;;;;;;8.90;100.00;99599.44;5090818;28;20488;-79
2022/11/10 03:23:07;;;;;;;8.95;3.75;;;;;;;9.00;100.00;99611.00;5102925;28;20495;-78
2022/11/10 03:25:34;;;;;;;4.63;3.22;;;;;;;8.90;100.00;99596.72;5111086;28;20040;-78
2022/11/10 03:28:00;;;;;;;4.88;3.20;;;;;;;8.95;100.00;99619.63;5111054;28;20445;-78
2022/11/10 03:30:28;;;;;;;10.77;3.25;;;;;;;8.92;100.00;99610.97;5110868;28;20521;-78
2022/11/10 03:32:55;;;;;;;7.47;3.67;;;;;;;8.97;100.00;99617.63;5110285;28;20134;-79
2022/11/10 03:35:21;;;;;;;9.65;3.70;;;;;;;8.90;100.00;99624.72;5110887;28;20046;-79
2022/11/10 03:37:48;;;;;;;6.10;3.80;;;;;;;8.83;100.00;99629.91;5108921;28;20044;-79
2022/11/10 03:40:15;;;;;;;7.10;3.50;;;;;;;8.91;100.00;99630.97;5110513;28;20080;-79
2022/11/10 03:42:42;;;;;;;8.20;3.50;;;;;;;8.83;100.00;99634.50;5110281;28;20047;-79
2022/11/10 03:45:10;;;;;;;6.97;3.60;;;;;;;8.75;100.00;99623.63;5110972;28;20552;-78
2022/11/10 03:47:38;;;;;;;10.45;4.15;;;;;;;8.81;100.00;99631.09;5114122;28;20058;-78
2022/11/10 03:50:06;;;;;;;6.15;3.45;;;;;;;8.73;100.00;99621.06;5114946;28;20051;-78
2022/11/10 03:52:32;;;;;;;7.93;3.55;;;;;;;8.74;100.00;99633.59;5114278;28;20134;-79
2022/11/10 03:54:59;;;;;;;9.15;3.88;;;;;;;8.74;100.00;99641.72;5111532;28;20048;-79
2022/11/10 03:57:25;;;;;;;13.73;4.03;;;;;;;8.75;100.00;99651.56;5110587;28;20542;-78
2022/11/10 03:59:52;;;;;;;7.15;3.70;;;;;;;8.78;100.00;99648.53;5114283;28;20051;-78
2022/11/10 04:02:18;;;;;;;8.07;4.00;;;;;;;8.86;100.00;99645.00;5114124;28;20074;-78
2022/11/10 04:10:14;;;;;;;9.35;4.00;;;;;;;8.79;100.00;99669.22;5114514;28;20055;-78
2022/11/10 04:15:43;;;;;;;9.48;3.70;;;;;;;8.66;100.00;99664.22;5114339;28;20054;-78
2022/11/10 04:18:28;;;;;;;6.65;3.78;;;;;;;8.61;100.00;99669.28;5114426;28;20490;-78
2022/11/10 04:20:57;;;;;;;11.75;3.80;;;;;;;8.52;100.00;99669.38;5114056;28;20160;-78
2022/11/10 04:23:29;;;;;;;7.18;3.35;;;;;;;8.58;100.00;99693.13;5113630;28;20054;-79
2022/11/10 04:28:43;;;;;;;6.28;3.17;;;;;;;8.39;100.00;99681.47;5112148;28;20100;-79
2022/11/10 04:31:10;;;;;;;10.73;3.42;;;;;;;8.40;100.00;99679.59;5113964;28;20051;-78
2022/11/10 04:33:38;;;;;;;10.43;3.90;;;;;;;8.35;100.00;99676.53;5113477;28;20059;-78
2022/11/10 04:36:06;;;;;;;8.75;4.57;;;;;;;8.36;100.00;99678.22;5113594;28;20036;-78
2022/11/10 04:38:33;;;;;;;12.15;3.55;;;;;;;8.17;100.00;99682.81;5113911;28;20053;-78
2022/11/10 04:41:00;;;;;;;6.95;3.03;;;;;;;8.06;100.00;99685.78;5114088;28;20131;-78
2022/11/10 04:43:27;;;;;;;12.15;3.97;;;;;;;8.00;100.00;99681.81;5113193;28;20052;-78
2022/11/10 04:45:54;;;;;;;7.43;3.00;;;;;;;8.10;100.00;99706.97;5111453;28;20044;-78
2022/11/10 04:48:20;;;;;;;4.57;3.33;;;;;;;8.06;100.00;99715.56;5113863;28;20355;-78
2022/11/10 04:50:47;;;;;;;11.52;3.38;;;;;;;8.08;100.00;99713.53;5113225;28;20051;-78
2022/11/10 04:53:15;;;;;;;6.50;3.13;;;;;;;7.84;100.00;99687.94;5113229;28;20047;-78
2022/11/10 04:55:43;;;;;;;9.35;2.83;;;;;;;7.95;100.00;99722.91;5113408;28;20414;-78
2022/11/10 04:58:10;;;;;;;6.35;2.95;;;;;;;7.90;100.00;99725.25;5110956;28;20061;-78
2022/11/10 05:00:38;;;;;;;6.90;2.80;;;;;;;7.55;100.00;99707.09;5113332;28;20402;-78
2022/11/10 05:03:07;;;;;;;9.68;3.08;;;;;;;7.69;100.00;99744.44;5107465;28;20040;-78
2022/11/10 05:05:34;;;;;;;4.93;2.55;;;;;;;7.61;100.00;99745.19;5113114;28;20051;-78
2022/11/10 05:08:01;;;;;;;8.60;3.03;;;;;;;7.53;100.00;99730.75;5115152;28;20832;-78
2022/11/10 05:10:29;;;;;;;3.90;2.35;;;;;;;7.55;100.00;99753.94;5114110;28;20135;-78
2022/11/10 05:12:56;;;;;;;5.53;2.75;;;;;;;7.42;100.00;99751.59;5112460;28;20055;-78
2022/11/10 05:15:24;;;;;;;4.03;2.38;;;;;;;7.34;100.00;99750.63;5113105;28;20047;-78
2022/11/10 05:17:50;;;;;;;5.53;2.92;;;;;;;7.18;100.00;99737.75;5111022;28;20047;-78
2022/11/10 05:20:17;;;;;;;5.40;2.70;;;;;;;7.23;100.00;99767.91;5111723;28;20138;-78
2022/11/10 05:23:36;;;;;;;7.30;2.45;;;;;;;7.05;100.00;99738.94;5112220;28;20047;-78
2022/11/10 05:25:34;;;;;;;10.63;2.72;;;;;;;7.02;100.00;99747.34;5113117;28;20474;-78
2022/11/10 05:28:01;;;;;;;4.60;2.92;;;;;;;7.17;100.00;99773.91;5113066;28;20047;-78
2022/11/10 05:30:27;;;;;;;10.10;6.15;;;;;;;7.02;100.00;99765.44;5112966;28;20390;-78
2022/11/10 05:32:54;;;;;;;10.02;3.80;;;;;;;7.07;100.00;99782.03;5112742;28;20039;-79
2022/11/10 05:35:20;;;;;;;5.13;3.10;;;;;;;7.07;100.00;99787.44;5113475;28;20058;-80
2022/11/10 05:37:47;;;;;;;9.18;2.88;;;;;;;6.83;100.00;99761.75;5111194;28;20044;-79
2022/11/10 05:40:14;;;;;;;6.38;3.13;;;;;;;6.85;100.00;99776.00;5112844;28;20047;-79
2022/11/10 05:42:45;;;;;;;4.35;2.60;;;;;;;6.64;100.00;99756.41;5112354;28;20052;-79
2022/11/10 05:45:12;;;;;;;5.15;2.38;;;;;;;6.59;100.00;99756.00;5112227;28;20130;-79
2022/11/10 05:47:39;;;;;;;5.03;3.35;;;;;;;6.65;100.00;99780.56;5113012;28;20051;-79
2022/11/10 05:50:08;;;;;;;5.50;3.30;;;;;;;6.53;100.00;99761.00;5112487;28;20055;-80
2022/11/10 05:52:35;;;;;;;8.00;2.90;;;;;;;6.54;100.00;99772.63;5111683;28;20044;-79
2022/11/10 05:55:01;;;;;;;4.28;3.45;;;;;;;6.52;100.00;99778.19;5111071;28;20051;-79
2022/11/10 05:57:28;;;;;;;8.20;3.22;;;;;;;6.40;100.00;99775.75;5111187;28;20048;-79
2022/11/10 05:59:56;;;;;;;7.88;3.30;;;;;;;6.31;100.00;99772.09;5112589;28;20054;-79
2022/11/10 06:02:22;;;;;;;7.53;3.10;;;;;;;6.62;100.00;99801.63;5111429;28;20047;-79
2022/11/10 06:04:49;;;;;;;10.35;3.47;;;;;;;6.50;100.00;99807.19;5112529;28;20498;-79
2022/11/10 06:07:15;;;;;;;10.75;3.70;;;;;;;6.65;100.00;99815.69;5112135;28;20054;-80
2022/11/10 06:09:42;;;;;;;13.30;3.90;;;;;;;6.61;100.00;99826.94;5111571;28;20134;-80
2022/11/10 06:12:08;;;;;;;7.40;4.47;;;;;;;6.54;100.00;99826.66;5105890;28;20043;-79
2022/11/10 06:14:35;;;;;;;7.35;2.95;;;;;;;6.49;100.00;99837.06;5111621;28;20051;-79
2022/11/10 06:17:03;;;;;;;6.25;3.40;;;;;;;6.45;100.00;99841.03;5112038;28;20048;-79
2022/11/10 06:19:29;;;;;;;6.53;3.15;;;;;;;6.38;100.00;99838.91;5111882;28;20056;-79
2022/11/10 06:21:57;;;;;;;3.95;3.13;;;;;;;6.28;100.00;99840.72;5112226;28;20066;-80
2022/11/10 06:24:24;;;;;;;6.30;3.05;;;;;;;6.28;100.00;99853.34;5111334;28;20052;-80
2022/11/10 06:26:51;;;;;;;10.13;3.30;;;;;;;6.30;100.00;99857.63;5112103;28;20062;-79
2022/11/10 06:29:17;;;;;;;5.72;3.55;;;;;;;6.23;100.00;99864.59;5110565;28;20051;-80
2022/11/10 06:31:44;;;;;;;7.80;3.30;;;;;;;6.25;100.00;99868.03;5090527;28;20468;-79
2022/11/10 06:34:12;;;;;;;6.63;3.20;;;;;;;6.24;100.00;99860.06;5090892;28;20052;-79
2022/11/10 06:36:39;;;;;;;6.72;3.65;;;;;;;6.38;100.00;99889.34;5091335;28;20043;-80
2022/11/10 06:39:06;;;;;;;5.25;3.38;;;;;;;6.42;100.00;99889.94;5091570;28;20048;-79
2022/11/10 06:41:57;;;;;;;8.68;3.75;;;;;;;6.47;100.00;99895.75;5091348;28;20044;-80
2022/11/10 06:44:23;;;;;;;5.07;3.67;;;;;;;6.29;100.00;99893.75;5098545;28;20047;-79
2022/11/10 06:46:50;;;;;;;7.88;3.58;;;;;;;6.44;100.00;99904.97;5111606;28;20078;-79
2022/11/10 06:49:18;;;;;;;11.55;3.92;;;;;;;6.41;100.00;99907.97;5111516;28;20054;-79
2022/11/10 06:51:44;;;;;;;8.93;4.60;;;;;;;6.57;100.00;99918.22;5111635;28;20044;-79
2022/11/10 06:54:11;;;;;;;7.85;4.20;;;;;;;6.71;100.00;99928.63;5110754;28;20481;-79
2022/11/10 06:56:38;;;;;;;10.65;4.45;;;;;;;6.75;100.00;99928.34;5111736;28;20036;-79
2022/11/10 06:59:04;;;;;;;10.05;3.75;;;;;;;6.74;100.00;99938.28;5102529;28;20047;-81
2022/11/10 07:01:31;;;;;;;6.55;3.55;;;;;;;6.62;100.00;99915.94;5110783;27;20051;-80
2022/11/10 07:03:57;;;;;;;8.07;4.35;;;;;;;6.63;100.00;99911.41;5110537;28;20086;-80
2022/11/10 07:06:25;;;;;;;11.45;4.10;;;;;;;6.98;100.00;99953.25;5111462;28;20069;-80
2022/11/10 07:08:52;;;;;;;12.65;3.92;;;;;;;6.94;100.00;99952.69;5109664;28;20380;-80
2022/11/10 07:11:18;;;;;;;10.45;4.57;;;;;;;7.04;100.00;99975.13;5111038;28;20054;-79
2022/11/10 07:13:45;;;;;;;15.90;4.18;;;;;;;7.09;100.00;99975.59;5108031;28;20044;-80
2022/11/10 07:16:12;;;;;;;9.80;5.43;;;;;;;6.93;100.00;99956.38;5112903;28;20052;-79
2022/11/10 07:18:38;;;;;;;11.88;5.78;;;;;;;7.09;100.00;99975.59;5113061;28;20050;-79
2022/11/10 07:21:06;;;;;;;12.45;4.85;;;;;;;7.15;100.00;99971.47;5110975;28;20483;-80
2022/11/10 07:23:34;;;;;;;11.55;5.47;;;;;;;7.24;100.00;99981.41;5110261;28;20044;-79
2022/11/10 07:26:01;;;;;;;11.48;4.75;;;;;;;7.23;100.00;99968.88;5111159;28;20062;-79
2022/11/10 07:28:28;;;;;;;14.23;5.10;;;;;;;7.32;100.00;99994.22;5110574;28;20047;-79
2022/11/10 07:30:55;;;;;;;7.32;4.78;;;;;;;7.21;100.00;99972.72;5106561;28;20049;-79
2022/11/10 07:33:22;;;;;;;8.60;4.90;;;;;;;7.35;100.00;99984.97;5110018;28;20138;-79
2022/11/10 07:35:54;;;;;;;6.63;4.30;;;;;;;7.38;100.00;99995.50;5110866;28;20059;-79
2022/11/10 07:38:21;;;;;;;8.25;4.35;;;;;;;7.43;100.00;99995.91;5110744;28;20060;-79
2022/11/10 07:40:52;;;;;;;7.05;4.43;;;;;;;7.37;100.00;99988.38;5112852;28;20047;-79
2022/11/10 07:43:19;;;;;;;12.85;4.25;;;;;;;7.41;100.00;100008.75;5111973;28;20746;-79
2022/11/10 07:45:45;;;;;;;10.95;4.07;;;;;;;7.40;100.00;100020.53;5111531;28;20056;-79
2022/11/10 07:48:13;;;;;;;13.70;5.60;;;;;;;7.35;100.00;100010.16;5104299;28;20054;-79
2022/11/10 07:50:39;;;;;;;9.70;5.35;;;;;;;7.44;100.00;100020.13;5111061;28;20040;-79
2022/11/10 07:53:07;;;;;;;8.30;4.82;;;;;;;7.36;100.00;100017.28;5110032;28;20048;-79
2022/11/10 07:55:34;;;;;;;8.18;4.22;;;;;;;7.37;100.00;100018.13;5110864;28;20066;-79
2022/11/10 07:58:02;;;;;;;7.57;4.50;;;;;;;7.42;100.00;100034.78;5110276;28;20048;-79
2022/11/10 08:00:29;;;;;;;9.23;5.20;;;;;;;7.36;100.00;100033.53;5110589;28;20073;-79
2022/11/10 08:03:01;;;;;;;8.85;5.28;;;;;;;7.51;100.00;100025.81;5110103;28;20044;-79
2022/11/10 08:05:28;;;;;;;13.07;6.90;;;;;;;7.53;100.00;100025.69;5108977;28;20354;-79
2022/11/10 08:07:54;;;;;;;11.95;5.20;;;;;;;7.42;100.00;100016.72;5110608;28;20054;-79
2022/11/10 08:10:21;;;;;;;13.07;5.25;;;;;;;7.60;100.00;100043.03;5110477;28;20143;-79
2022/11/10 08:12:53;;;;;;;9.88;5.20;;;;;;;7.57;100.00;100027.94;5109916;28;20047;-79
2022/11/10 08:15:21;;;;;;;14.88;5.88;;;;;;;7.71;100.00;100029.34;5110485;28;20087;-80
2022/11/10 08:17:48;;;;;;;14.75;6.13;;;;;;;7.75;100.00;100030.78;5110805;28;20042;-79
2022/11/10 08:20:15;;;;;;;17.30;6.38;;;;;;;7.92;100.00;100041.84;5109207;28;20048;-79
2022/11/10 08:22:42;;;;;;;17.08;6.85;;;;;;;7.90;100.00;100030.28;5109730;28;20040;-79
2022/11/10 08:25:09;;;;;;;16.15;6.93;;;;;;;8.13;100.00;100066.88;5110851;28;20048;-79
2022/11/10 08:27:35;;;;;;;16.33;6.30;;;;;;;8.22;100.00;100065.13;5110538;28;20452;-79
2022/11/10 08:30:02;;;;;;;19.27;6.60;;;;;;;8.30;100.00;100054.41;5110048;28;20407;-79
2022/11/10 08:32:30;;;;;;;16.17;7.38;;;;;;;8.19;100.00;100051.88;5109975;28;20135;-79
2022/11/10 08:34:56;;;;;;;13.10;7.60;;;;;;;8.17;100.00;100051.16;5113861;28;20047;-79
2022/11/10 08:37:23;;;;;;;14.30;6.50;;;;;;;8.31;100.00;100058.81;5112495;28;20048;-79
2022/11/10 08:39:49;;;;;;;12.50;5.85;;;;;;;8.30;100.00;100057.09;5112958;28;20055;-79
2022/11/10 08:42:16;;;;;;;15.98;6.97;;;;;;;8.41;100.00;100047.94;5113282;28;20071;-79
2022/11/10 08:44:42;;;;;;;20.45;8.55;;;;;;;8.48;100.00;100050.94;5114002;28;20059;-79
2022/11/10 08:47:09;;;;;;;17.48;8.25;;;;;;;8.55;100.00;100067.44;5113798;28;20130;-79
2022/11/10 08:49:37;;;;;;;31.33;9.68;;;;;;;8.61;100.00;100072.25;5113882;28;20400;-79
2022/11/10 08:52:04;;;;;;;15.50;8.57;;;;;;;8.66;100.00;100078.94;5106589;28;20515;-79
2022/11/10 08:54:30;;;;;;;17.80;7.45;;;;;;;8.64;100.00;100069.25;5113133;28;20055;-79
2022/11/10 08:56:57;;;;;;;20.23;7.43;;;;;;;8.59;100.00;100064.28;5113794;28;20039;-79
2022/11/10 08:59:23;;;;;;;8.25;4.80;;;;;;;8.83;100.00;100088.13;5113569;28;20067;-79
2022/11/10 09:01:50;;;;;;;14.60;4.88;;;;;;;8.75;100.00;100069.06;5113742;28;20490;-79
2022/11/10 09:04:16;;;;;;;9.32;4.78;;;;;;;8.85;100.00;100101.53;5112593;28;20054;-79
2022/11/10 09:06:44;;;;;;;18.52;5.30;;;;;;;8.85;100.00;100085.25;5113621;28;20054;-79
2022/11/10 09:09:10;;;;;;;16.20;4.50;;;;;;;8.95;100.00;100098.78;5105761;28;20064;-79
2022/11/10 09:11:37;;;;;;;9.00;4.22;;;;;;;8.99;100.00;100101.03;5112575;28;20502;-79
2022/11/10 09:14:04;;;;;;;19.75;4.72;;;;;;;8.86;100.00;100076.97;5112967;28;20051;-79
2022/11/10 09:16:30;;;;;;;14.48;4.88;;;;;;;8.95;100.00;100090.66;5113427;28;20048;-79
2022/11/10 09:18:57;;;;;;;11.43;4.20;;;;;;;9.02;100.00;100091.75;5113507;28;20039;-79
2022/11/10 09:21:23;;;;;;;8.10;3.47;;;;;;;8.98;100.00;100084.91;5112844;28;20074;-79
2022/11/10 09:23:51;;;;;;;7.10;3.15;;;;;;;9.20;100.00;100103.47;5110090;28;20054;-79
2022/11/10 09:26:17;;;;;;;11.60;3.90;;;;;;;9.28;100.00;100110.84;5113061;28;20122;-79
2022/11/10 09:28:44;;;;;;;11.60;3.80;;;;;;;9.19;100.00;100098.19;5112783;28;20094;-79
2022/11/10 09:31:11;;;;;;;10.13;3.58;;;;;;;9.25;100.00;100110.31;5113409;28;20105;-79
2022/11/10 09:33:37;;;;;;;5.88;3.53;;;;;;;9.23;100.00;100098.75;5112451;28;20040;-79
2022/11/10 09:36:05;;;;;;;8.95;3.70;;;;;;;9.28;100.00;100112.72;5108861;28;20049;-79
2022/11/10 09:38:32;;;;;;;12.40;4.40;;;;;;;9.45;100.00;100140.88;5109775;28;20063;-80
2022/11/10 09:41:02;;;;;;;9.32;3.70;;;;;;;9.38;100.00;100121.66;5106454;28;20190;-80
2022/11/10 09:43:34;;;;;;;8.40;3.70;;;;;;;9.51;100.00;100141.09;5112244;28;20562;-80
2022/11/10 09:46:09;;;;;;;8.57;4.78;;;;;;;9.47;100.00;100122.56;5112625;28;20498;-80
2022/11/10 09:48:42;;;;;;;8.63;3.42;;;;;;;9.63;100.00;100146.31;5112787;28;20043;-79
2022/11/10 09:51:15;;;;;;;14.07;4.25;;;;;;;9.59;100.00;100139.47;5112754;28;20047;-79
2022/11/10 09:53:47;;;;;;;9.90;3.55;;;;;;;9.55;100.00;100136.22;5111972;28;20051;-80
2022/11/10 09:56:21;;;;;;;7.82;3.00;;;;;;;9.79;100.00;100164.63;5106160;28;20058;-80
2022/11/10 09:58:47;;;;;;;9.05;3.50;;;;;;;9.87;100.00;100161.97;5104507;28;20550;-80
2022/11/10 10:01:24;;;;;;;9.30;3.90;;;;;;;9.75;100.00;100139.63;5112383;28;20044;-80
2022/11/10 10:04:00;;;;;;;8.43;3.28;;;;;;;9.88;100.00;100152.84;5112005;28;20051;-80
2022/11/10 10:06:27;;;;;;;9.63;3.22;;;;;;;9.83;100.00;100131.56;5112511;28;20048;-80
2022/11/10 10:09:10;;;;;;;5.35;2.72;;;;;;;9.92;100.00;100149.66;5112178;28;20050;-80
2022/11/10 10:11:48;;;;;;;8.57;2.72;;;;;;;9.91;100.00;100142.50;5107457;27;20047;-80
2022/11/10 10:14:28;;;;;;;9.27;2.45;;;;;;;9.99;100.00;100143.59;5111559;28;20047;-80
2022/11/10 10:17:04;;;;;;;7.82;2.60;;;;;;;10.19;100.00;100158.69;5112526;28;20055;-80
2022/11/10 10:19:37;;;;;;;15.60;2.78;;;;;;;10.14;100.00;100144.72;5112106;28;20052;-80
2022/11/10 10:22:22;;;;;;;8.68;2.40;;;;;;;10.35;100.00;100155.25;5111557;28;20047;-80
2022/11/10 10:24:49;;;;;;;5.40;1.60;;;;;;;10.27;100.00;100144.31;5112111;28;20058;-80
2022/11/10 10:27:21;;;;;;;5.18;1.83;;;;;;;10.37;100.00;100155.09;5111912;28;20059;-80
2022/11/10 10:29:48;;;;;;;11.23;2.03;;;;;;;10.38;100.00;100148.66;5106681;28;20409;-80
2022/11/10 10:32:16;;;;;;;5.95;1.75;;;;;;;10.42;100.00;100145.47;5111208;28;20044;-81
2022/11/10 10:34:44;;;;;;;3.85;1.20;;;;;;;10.65;100.00;100169.41;5111746;28;20063;-81
2022/11/10 10:37:22;;;;;;;5.47;1.40;;;;;;;10.42;100.00;100145.47;5111639;28;20425;-81
2022/11/10 10:39:51;;;;;;;5.75;1.30;;;;;;;10.43;100.00;100146.31;5110659;28;20156;-81
2022/11/10 10:42:29;;;;;;;6.88;1.35;;;;;;;10.61;100.00;100166.16;5110619;28;20057;-81
2022/11/10 10:45:16;;;;;;;4.55;1.67;;;;;;;10.54;100.00;100137.91;5109893;28;20059;-80
2022/11/10 10:47:43;;;;;;;12.68;2.33;;;;;;;10.61;100.00;100146.25;5111369;28;20130;-81
2022/11/10 10:50:22;;;;;;;6.28;1.48;;;;;;;10.68;100.00;100141.88;5111754;28;20047;-80
2022/11/10 10:53:06;;;;;;;4.23;1.47;;;;;;;10.85;100.00;100145.53;5111105;28;20047;-81
2022/11/10 10:55:33;;;;;;;6.82;2.50;;;;;;;10.93;100.00;100140.13;5110908;28;20055;-81
2022/11/10 10:58:04;;;;;;;6.05;1.30;;;;;;;11.04;100.00;100152.59;5110873;28;20044;-81
2022/11/10 11:00:30;;;;;;;3.40;1.27;;;;;;;11.14;100.00;100152.44;5111462;28;20056;-81
2022/11/10 11:03:04;;;;;;;5.22;1.45;;;;;;;11.16;100.00;100164.88;5103787;28;20054;-80
2022/11/10 11:05:31;;;;;;;3.22;1.10;;;;;;;11.22;100.00;100162.53;5111084;28;20123;-80
2022/11/10 11:08:00;;;;;;;2.38;1.23;;;;;;;11.22;100.00;100166.09;5111500;28;20101;-81
2022/11/10 11:10:30;;;;;;;3.63;1.20;;;;;;;11.17;100.00;100157.59;5111781;28;20052;-81
2022/11/10 11:13:13;;;;;;;13.45;1.40;;;;;;;11.24;100.00;100169.50;5095503;28;20491;-81
2022/11/10 11:15:39;;;;;;;2.90;0.95;;;;;;;11.19;100.00;100143.81;5111407;28;20043;-81
2022/11/10 11:18:13;;;;;;;7.28;1.30;;;;;;;11.42;100.00;100154.94;5111294;28;20113;-80
2022/11/10 11:20:47;;;;;;;3.67;1.13;;;;;;;11.40;100.00;100152.38;5106819;28;20055;-81
2022/11/10 11:23:33;;;;;;;5.20;1.10;;;;;;;11.41;100.00;100136.88;5111000;28;20052;-81
2022/11/10 11:26:09;;;;;;;3.72;1.10;;;;;;;11.51;100.00;100151.19;5106261;28;20666;-81
2022/11/10 11:28:44;;;;;;;4.63;1.20;;;;;;;11.50;99.60;100141.31;5111951;28;20058;-80
2022/11/10 11:31:18;;;;;;;5.43;1.15;;;;;;;11.50;100.00;100141.31;5110403;28;20057;-80
2022/11/10 11:33:51;;;;;;;7.28;1.10;;;;;;;11.73;100.00;100160.59;5110359;28;20058;-81
2022/11/10 11:36:29;;;;;;;5.03;1.23;;;;;;;11.68;100.00;100143.91;5110978;28;20057;-81
2022/11/10 11:39:04;;;;;;;2.85;0.80;;;;;;;11.90;100.00;100155.19;5110798;28;20054;-81
2022/11/10 11:41:38;;;;;;;6.18;1.70;;;;;;;11.91;96.27;100154.13;5104377;28;20052;-81
2022/11/10 11:44:19;;;;;;;3.65;1.05;;;;;;;11.97;89.55;100151.63;5109572;28;20049;-81